Time;durP1;ratioP1;P1;durP2;ratioP2;P2;SDS_P1;SDS_P2;PMS_P1;PMS_P2;Temp;Humidity;BMP_temperature;BMP_pressure;BME280_temperature;BME280_humidity;BME280_pressure;Samples;Min_cycle;Max_cycle;Signal;HPM_P1;HPM_P2
2023/07/26 00:03:41;;;;;;;1.80;1.70;;;25.40;55.80;;;;;;222090;1267;22508;-45
2023/07/26 00:08:46;;;;;;;2.00;1.80;;;25.40;55.70;;;;;;221730;1269;22531;-45
2023/07/26 00:13:50;;;;;;;3.20;1.80;;;25.40;56.00;;;;;;222006;1254;22534;-44
2023/07/26 00:18:54;;;;;;;4.40;1.80;;;25.30;55.40;;;;;;222114;1254;25150;-48
2023/07/26 00:23:58;;;;;;;2.40;1.90;;;25.30;55.30;;;;;;222040;1269;22684;-45
2023/07/26 00:29:03;;;;;;;3.50;1.70;;;25.40;55.40;;;;;;222199;1254;22531;-46
2023/07/26 00:34:07;;;;;;;2.80;1.90;;;25.30;55.30;;;;;;222167;1256;22548;-44
2023/07/26 00:39:11;;;;;;;2.30;1.90;;;25.30;55.30;;;;;;222174;1264;22832;-43
2023/07/26 00:44:15;;;;;;;4.70;1.90;;;25.30;55.50;;;;;;222266;1269;24036;-43
2023/07/26 00:49:19;;;;;;;1.80;1.60;;;25.20;55.10;;;;;;221940;1254;22508;-46
2023/07/26 00:54:23;;;;;;;2.90;1.80;;;25.20;54.90;;;;;;222086;1255;22516;-45
2023/07/26 00:59:28;;;;;;;2.20;1.40;;;25.10;54.90;;;;;;221971;1269;22531;-45
2023/07/26 01:04:32;;;;;;;3.90;2.10;;;25.10;54.70;;;;;;221885;1255;22525;-47
2023/07/26 01:09:55;;;;;;;3.80;2.00;;;25.10;54.50;;;;;;222095;1259;24308;-42
2023/07/26 01:15:07;;;;;;;3.40;1.60;;;25.10;54.40;;;;;;222201;1264;22523;-47
2023/07/26 01:20:12;;;;;;;;;;;25.10;54.60;;;;;;222436;1257;25300;-44
2023/07/26 01:25:16;;;;;;;4.00;2.40;;;25.10;54.20;;;;;;222392;1262;22620;-45
2023/07/26 01:30:22;;;;;;;2.70;1.50;;;25.10;54.20;;;;;;221944;1256;22518;-44
2023/07/26 01:35:28;;;;;;;1.80;1.50;;;25.00;54.80;;;;;;222239;1263;25313;-44
2023/07/26 01:40:32;;;;;;;4.50;1.70;;;25.00;54.30;;;;;;222272;1262;22511;-43
2023/07/26 01:45:37;;;;;;;2.10;1.30;;;25.00;54.30;;;;;;222308;1267;22552;-46
2023/07/26 01:50:41;;;;;;;1.90;1.70;;;24.90;54.00;;;;;;222300;1262;22538;-45
2023/07/26 01:55:46;;;;;;;3.00;1.30;;;24.90;54.40;;;;;;222105;1254;24437;-45
2023/07/26 02:00:50;;;;;;;2.30;1.40;;;24.90;53.90;;;;;;222142;1258;22657;-45
2023/07/26 02:05:54;;;;;;;5.00;1.50;;;24.90;53.80;;;;;;222338;1269;22518;-43
2023/07/26 02:10:59;;;;;;;1.90;1.40;;;24.90;53.80;;;;;;222060;1254;23936;-44
2023/07/26 02:16:04;;;;;;;3.60;1.40;;;24.90;53.80;;;;;;221597;1259;346053;-47
2023/07/26 02:21:08;;;;;;;2.80;1.50;;;24.80;53.80;;;;;;222075;1264;22515;-43
2023/07/26 02:26:12;;;;;;;1.70;1.60;;;24.90;53.40;;;;;;221964;1264;22457;-46
2023/07/26 02:31:18;;;;;;;3.10;1.60;;;24.90;54.00;;;;;;222101;1263;24193;-44
2023/07/26 02:36:22;;;;;;;4.90;1.60;;;24.80;53.90;;;;;;222108;1268;22554;-47
2023/07/26 02:41:26;;;;;;;4.00;1.50;;;24.80;54.00;;;;;;222171;1267;22517;-44
2023/07/26 02:46:30;;;;;;;3.50;1.50;;;24.80;54.30;;;;;;222026;1263;22636;-45
2023/07/26 02:51:35;;;;;;;7.30;1.90;;;24.80;54.10;;;;;;222080;1254;22616;-46
2023/07/26 02:56:39;;;;;;;2.80;1.70;;;24.80;54.20;;;;;;222040;1267;22511;-45
2023/07/26 03:01:43;;;;;;;2.80;1.50;;;24.70;54.40;;;;;;221912;1253;22525;-45
2023/07/26 03:06:47;;;;;;;2.70;1.70;;;24.70;54.70;;;;;;221992;1266;22522;-44
2023/07/26 03:11:51;;;;;;;4.90;1.70;;;24.60;54.80;;;;;;222006;1269;24233;-46
2023/07/26 03:16:55;;;;;;;1.70;1.60;;;24.60;54.70;;;;;;221941;1266;22518;-44
2023/07/26 03:22:18;;;;;;;2.40;1.70;;;24.60;54.70;;;;;;222215;1254;22646;-43
2023/07/26 03:27:23;;;;;;;2.00;1.60;;;24.60;54.80;;;;;;222338;1256;22980;-45
2023/07/26 03:32:27;;;;;;;4.10;2.20;;;24.60;55.20;;;;;;222029;1257;22637;-45
2023/07/26 03:37:32;;;;;;;3.00;1.80;;;24.50;54.90;;;;;;222166;1260;22597;-45
2023/07/26 03:42:36;;;;;;;2.10;1.80;;;24.50;55.10;;;;;;222362;1256;23230;-45
2023/07/26 03:47:40;;;;;;;4.80;2.20;;;24.50;55.10;;;;;;222048;1262;22525;-45
2023/07/26 03:52:45;;;;;;;2.00;1.80;;;24.50;55.10;;;;;;222207;1264;25354;-44
2023/07/26 03:57:49;;;;;;;4.00;1.90;;;24.50;55.20;;;;;;222076;1269;22523;-45
2023/07/26 04:02:53;;;;;;;4.20;1.70;;;24.40;55.30;;;;;;221749;1268;22512;-46
2023/07/26 04:07:57;;;;;;;7.00;1.70;;;24.40;55.40;;;;;;221785;1262;25262;-42
2023/07/26 04:13:01;;;;;;;4.90;1.90;;;24.40;55.60;;;;;;222243;1255;22520;-44
2023/07/26 04:18:06;;;;;;;5.30;1.90;;;24.40;55.50;;;;;;222306;1261;22507;-44
2023/07/26 04:23:10;;;;;;;2.60;1.50;;;24.40;55.50;;;;;;222222;1258;22562;-45
2023/07/26 04:28:15;;;;;;;2.40;1.70;;;24.50;55.80;;;;;;222058;1262;22815;-44
2023/07/26 04:33:19;;;;;;;3.70;2.60;;;24.40;55.50;;;;;;221888;1255;22524;-47
2023/07/26 04:38:25;;;;;;;2.30;1.90;;;24.50;55.50;;;;;;222132;1266;24012;-45
2023/07/26 04:43:29;;;;;;;2.70;1.60;;;24.50;55.50;;;;;;222055;1257;24257;-45
2023/07/26 04:48:35;;;;;;;1.80;1.60;;;24.50;55.50;;;;;;221826;1262;22527;-46
2023/07/26 04:53:39;;;;;;;3.20;2.00;;;24.40;55.50;;;;;;221974;1259;22521;-43
2023/07/26 04:58:43;;;;;;;2.30;2.10;;;24.40;56.00;;;;;;221759;1263;22508;-49
2023/07/26 05:03:47;;;;;;;2.00;1.80;;;24.40;55.60;;;;;;221783;1256;22518;-45
2023/07/26 05:08:52;;;;;;;3.30;1.90;;;24.30;56.10;;;;;;221986;1263;22503;-46
2023/07/26 05:13:56;;;;;;;4.50;2.20;;;24.30;55.90;;;;;;221996;1254;22551;-45
2023/07/26 05:19:00;;;;;;;3.50;2.10;;;24.30;56.00;;;;;;222228;1267;23089;-46
2023/07/26 05:24:04;;;;;;;2.50;2.00;;;24.30;56.10;;;;;;221951;1254;22523;-47
2023/07/26 05:29:08;;;;;;;1.80;1.60;;;24.20;55.70;;;;;;222343;1256;24242;-46
2023/07/26 05:34:12;;;;;;;2.70;1.90;;;24.20;56.10;;;;;;222009;1266;25202;-45
2023/07/26 05:39:16;;;;;;;2.30;1.90;;;24.20;56.40;;;;;;222165;1254;22519;-46
2023/07/26 05:44:21;;;;;;;2.50;1.60;;;24.30;56.10;;;;;;222309;1266;22529;-45
2023/07/26 05:49:25;;;;;;;2.50;1.70;;;24.30;56.10;;;;;;222162;1256;22528;-46
2023/07/26 05:54:29;;;;;;;1.80;1.70;;;24.30;56.20;;;;;;221907;1263;22600;-46
2023/07/26 05:59:33;;;;;;;2.10;1.80;;;24.30;56.20;;;;;;221924;1257;25360;-45
2023/07/26 06:04:37;;;;;;;3.40;1.70;;;24.20;56.30;;;;;;222169;1263;22691;-44
2023/07/26 06:09:42;;;;;;;3.40;1.90;;;24.20;56.10;;;;;;222140;1266;22570;-46
2023/07/26 06:14:46;;;;;;;2.80;2.30;;;24.40;56.30;;;;;;222120;1263;22521;-46
2023/07/26 06:19:51;;;;;;;2.20;1.70;;;24.50;56.30;;;;;;222036;1263;22542;-54
2023/07/26 06:24:56;;;;;;;3.00;1.20;;;24.50;56.40;;;;;;222093;1263;22556;-51
2023/07/26 06:30:01;;;;;;;2.30;1.40;;;24.50;56.30;;;;;;221978;1263;22637;-49
2023/07/26 06:35:05;;;;;;;1.30;1.20;;;24.60;55.80;;;;;;221889;1266;22565;-48
2023/07/26 06:40:10;;;;;;;2.90;1.70;;;24.60;56.20;;;;;;222209;1256;22534;-52
2023/07/26 06:45:14;;;;;;;3.30;1.60;;;24.60;56.00;;;;;;222154;1261;24142;-46
2023/07/26 06:50:18;;;;;;;1.40;1.20;;;24.60;55.90;;;;;;221892;1263;23913;-51
2023/07/26 06:55:23;;;;;;;1.60;1.50;;;24.60;55.80;;;;;;221809;1266;22627;-51
2023/07/26 07:00:29;;;;;;;2.30;1.60;;;24.70;55.70;;;;;;222307;1256;24229;-50
2023/07/26 07:05:35;;;;;;;1.90;1.50;;;24.70;56.20;;;;;;222039;1256;23929;-54
2023/07/26 07:10:39;;;;;;;1.60;1.50;;;24.70;55.70;;;;;;222188;1247;22640;-48
2023/07/26 07:15:44;;;;;;;1.60;1.50;;;24.70;56.00;;;;;;221901;1269;25421;-53
2023/07/26 07:20:54;;;;;;;2.40;1.70;;;24.70;55.60;;;;;;222025;1266;22528;-48
2023/07/26 07:25:59;;;;;;;1.60;1.50;;;24.70;55.40;;;;;;221861;1247;25350;-49
2023/07/26 07:31:02;;;;;;;1.60;1.50;;;24.70;55.70;;;;;;221691;1257;24222;-51
2023/07/26 07:36:07;;;;;;;1.80;1.50;;;24.70;55.70;;;;;;221832;1255;22507;-48
2023/07/26 07:41:13;;;;;;;1.50;1.40;;;24.70;56.20;;;;;;222105;1256;25683;-53
2023/07/26 07:46:18;;;;;;;1.40;1.30;;;24.70;55.70;;;;;;222283;1255;25341;-50
2023/07/26 07:51:22;;;;;;;1.90;1.20;;;24.80;55.50;;;;;;221703;1257;23913;-50
2023/07/26 07:56:26;;;;;;;1.60;1.50;;;24.70;55.50;;;;;;221756;1262;25327;-50
2023/07/26 08:01:32;;;;;;;1.80;1.50;;;24.80;55.60;;;;;;222218;1267;23145;-53
2023/07/26 08:06:39;;;;;;;2.60;1.60;;;24.80;55.40;;;;;;221821;1257;25210;-53
2023/07/26 08:11:43;;;;;;;3.10;1.40;;;24.80;55.60;;;;;;222070;1254;22560;-49
2023/07/26 08:16:48;;;;;;;2.40;1.40;;;24.90;55.80;;;;;;221807;1263;26364;-51
2023/07/26 08:21:53;;;;;;;1.90;1.40;;;24.90;55.60;;;;;;222032;1266;22514;-46
2023/07/26 08:26:58;;;;;;;1.60;1.30;;;25.00;55.90;;;;;;222069;1256;24356;-46
2023/07/26 08:32:03;;;;;;;1.30;1.20;;;25.00;55.60;;;;;;222138;1256;25343;-52
2023/07/26 08:37:09;;;;;;;5.20;1.50;;;24.90;55.50;;;;;;222152;1257;22510;-49
2023/07/26 08:42:13;;;;;;;1.40;1.30;;;25.00;55.70;;;;;;221950;1269;22510;-49
2023/07/26 08:47:20;;;;;;;1.80;1.70;;;24.90;55.80;;;;;;222240;1263;22535;-46
2023/07/26 08:52:24;;;;;;;2.40;1.70;;;24.90;56.00;;;;;;222061;1256;24243;-54
2023/07/26 08:57:28;;;;;;;2.70;1.50;;;24.90;55.70;;;;;;222231;1256;24355;-46
2023/07/26 09:02:34;;;;;;;2.00;1.20;;;25.00;55.60;;;;;;222008;1263;22696;-49
2023/07/26 09:07:42;;;;;;;1.60;1.40;;;25.10;55.30;;;;;;221994;1263;22530;-44
2023/07/26 09:12:50;;;;;;;3.30;1.40;;;25.10;55.30;;;;;;221886;1269;25419;-51
2023/07/26 09:18:03;;;;;;;4.00;1.70;;;25.00;55.60;;;;;;222138;1267;24023;-54
2023/07/26 09:23:09;;;;;;;5.00;1.50;;;25.20;55.50;;;;;;222238;1261;22569;-46
2023/07/26 09:28:15;;;;;;;1.50;1.40;;;25.10;55.40;;;;;;221975;1263;25774;-50
2023/07/26 09:33:22;;;;;;;1.40;1.30;;;25.00;55.50;;;;;;222052;1254;23013;-46
2023/07/26 09:38:26;;;;;;;3.60;1.50;;;25.10;55.50;;;;;;221900;1257;22596;-49
2023/07/26 09:43:32;;;;;;;1.40;1.30;;;25.10;55.70;;;;;;222029;1257;26494;-47
2023/07/26 09:48:38;;;;;;;3.50;1.60;;;25.10;55.40;;;;;;222228;1265;25318;-48
2023/07/26 09:53:57;;;;;;;1.30;1.20;;;25.20;55.30;;;;;;221936;1269;23879;-53
2023/07/26 09:59:01;;;;;;;3.00;1.40;;;25.30;55.20;;;;;;221906;1266;22816;-50
2023/07/26 10:04:15;;;;;;;1.30;1.20;;;25.30;55.30;;;;;;222138;1256;25259;-48
2023/07/26 10:09:22;;;;;;;2.40;1.40;;;25.30;55.30;;;;;;221896;1252;24320;-47
2023/07/26 10:14:31;;;;;;;1.50;1.40;;;25.30;55.10;;;;;;222164;1259;25393;-51
2023/07/26 10:19:38;;;;;;;2.70;1.30;;;25.30;55.10;;;;;;221901;1261;25378;-52
2023/07/26 10:24:42;;;;;;;3.10;1.40;;;25.30;55.20;;;;;;221733;1263;22604;-52
2023/07/26 10:29:47;;;;;;;1.60;1.50;;;25.30;55.00;;;;;;222040;1262;22534;-48
2023/07/26 10:34:56;;;;;;;2.20;1.10;;;25.30;55.00;;;;;;221826;1266;22900;-51
2023/07/26 10:40:34;;;;;;;1.30;1.20;;;25.40;54.80;;;;;;221810;1263;22516;-47
2023/07/26 10:45:41;;;;;;;3.70;1.30;;;25.40;54.90;;;;;;221866;1259;22529;-50
2023/07/26 10:50:45;;;;;;;1.50;1.40;;;25.40;54.80;;;;;;222082;1269;25387;-48
2023/07/26 10:55:55;;;;;;;2.90;1.20;;;25.40;54.80;;;;;;222062;1266;24280;-46
2023/07/26 11:01:02;;;;;;;2.30;1.70;;;25.40;54.50;;;;;;222023;1263;22507;-47
2023/07/26 11:06:06;;;;;;;1.20;1.10;;;25.50;53.40;;;;;;221870;1266;24194;-45
2023/07/26 11:11:10;;;;;;;1.80;1.50;;;25.40;53.30;;;;;;222189;1254;24215;-52
2023/07/26 11:16:14;;;;;;;1.50;1.10;;;25.40;53.20;;;;;;222094;1266;22998;-49
2023/07/26 11:21:35;;;;;;;2.40;1.50;;;25.40;52.80;;;;;;222151;1263;22517;-50
2023/07/26 11:26:45;;;;;;;3.00;1.30;;;25.50;52.00;;;;;;221970;1259;25297;-47
2023/07/26 11:31:49;;;;;;;2.90;1.50;;;25.40;52.60;;;;;;222205;1266;25220;-51
2023/07/26 11:37:06;;;;;;;2.40;1.10;;;25.40;53.00;;;;;;221867;1263;22549;-51
2023/07/26 11:42:15;;;;;;;3.10;1.50;;;25.40;52.80;;;;;;222060;1259;22517;-50
2023/07/26 11:47:21;;;;;;;1.80;1.30;;;25.50;52.00;;;;;;221811;1269;22581;-50
2023/07/26 11:52:28;;;;;;;2.50;1.00;;;25.50;52.00;;;;;;222247;1256;27769;-53
2023/07/26 11:57:33;;;;;;;1.30;1.20;;;25.60;51.40;;;;;;222007;1266;24023;-52
2023/07/26 12:02:37;;;;;;;1.10;1.00;;;25.60;51.50;;;;;;221966;1269;22668;-47
2023/07/26 12:07:52;;;;;;;2.40;1.00;;;25.70;50.90;;;;;;221979;1263;22507;-54
2023/07/26 12:12:57;;;;;;;1.60;1.00;;;25.60;49.70;;;;;;222029;1256;24945;-46
2023/07/26 12:18:05;;;;;;;2.80;1.30;;;25.60;50.20;;;;;;222181;1264;25337;-47
2023/07/26 12:23:09;;;;;;;1.60;1.10;;;25.60;49.80;;;;;;221807;1263;22702;-50
2023/07/26 12:28:13;;;;;;;3.00;1.50;;;25.60;50.00;;;;;;221936;1263;22514;-55
2023/07/26 12:33:17;;;;;;;3.90;1.20;;;25.50;49.40;;;;;;221825;1256;25230;-49
2023/07/26 12:38:23;;;;;;;2.80;1.20;;;25.50;49.20;;;;;;221993;1256;22516;-50
2023/07/26 12:43:51;;;;;;;1.60;1.20;;;25.50;49.40;;;;;;221951;1269;22561;-53
2023/07/26 12:48:58;;;;;;;3.50;1.20;;;25.50;48.50;;;;;;222192;1263;24334;-56
2023/07/26 12:54:02;;;;;;;2.00;1.00;;;25.50;48.80;;;;;;221802;1247;24174;-56
2023/07/26 12:59:07;;;;;;;9.60;1.40;;;25.50;48.50;;;;;;221981;1263;23073;-51
2023/07/26 13:04:12;;;;;;;1.90;0.90;;;25.50;48.90;;;;;;221684;1264;25266;-54
2023/07/26 13:09:16;;;;;;;2.60;1.20;;;25.40;49.00;;;;;;221660;1266;22522;-53
2023/07/26 13:14:20;;;;;;;1.70;1.20;;;25.40;50.20;;;;;;222019;1255;24240;-53
2023/07/26 13:19:24;;;;;;;1.20;1.00;;;25.40;49.80;;;;;;222626;1254;22511;-54
2023/07/26 13:24:29;;;;;;;2.20;1.50;;;25.40;50.90;;;;;;222082;1264;22511;-52
2023/07/26 13:29:34;;;;;;;3.50;1.20;;;25.40;50.60;;;;;;221804;1266;24228;-51
2023/07/26 13:34:38;;;;;;;1.60;1.00;;;25.50;49.70;;;;;;221941;1263;24209;-50
2023/07/26 13:39:43;;;;;;;2.50;1.00;;;25.60;49.80;;;;;;221723;1269;22523;-52
2023/07/26 13:44:49;;;;;;;1.00;0.90;;;25.60;49.90;;;;;;221959;1269;22657;-54
2023/07/26 13:49:53;;;;;;;1.20;1.00;;;25.70;49.30;;;;;;221959;1263;23499;-51
2023/07/26 13:54:58;;;;;;;4.30;1.30;;;25.60;50.30;;;;;;222098;1263;22541;-44
2023/07/26 14:00:03;;;;;;;1.70;1.40;;;25.50;49.80;;;;;;221971;1247;24183;-44
2023/07/26 14:05:14;;;;;;;;;;;25.60;50.70;;;;;;222170;1263;22489;-57
2023/07/26 14:10:19;;;;;;;1.20;1.00;;;25.60;48.70;;;;;;221682;1263;22512;-58
2023/07/26 14:15:23;;;;;;;1.60;1.00;;;25.60;49.90;;;;;;221690;1266;183844;-53
2023/07/26 14:20:27;;;;;;;2.30;0.90;;;25.60;49.50;;;;;;221885;1263;22535;-53
2023/07/26 14:25:33;;;;;;;1.80;1.10;;;25.50;49.80;;;;;;221913;1266;22596;-58
2023/07/26 14:30:38;;;;;;;1.20;1.00;;;25.60;48.50;;;;;;221955;1266;24219;-57
2023/07/26 14:35:42;;;;;;;1.50;1.20;;;25.50;48.90;;;;;;221953;1247;25479;-53
2023/07/26 14:40:47;;;;;;;1.60;0.80;;;25.50;49.40;;;;;;222001;1266;23915;-53
2023/07/26 14:45:51;;;;;;;2.50;1.10;;;25.50;48.20;;;;;;222014;1263;22525;-51
2023/07/26 14:50:55;;;;;;;1.70;1.10;;;25.60;47.80;;;;;;222166;1266;22527;-53
2023/07/26 14:55:59;;;;;;;1.90;0.70;;;25.70;47.80;;;;;;221667;1267;22516;-50
2023/07/26 15:01:03;;;;;;;2.00;1.00;;;25.60;48.50;;;;;;221727;1269;22521;-52
2023/07/26 15:06:07;;;;;;;2.70;0.90;;;25.60;48.70;;;;;;221827;1267;22694;-54
2023/07/26 15:11:12;;;;;;;0.90;0.80;;;25.70;49.40;;;;;;221744;1259;24222;-52
2023/07/26 15:16:16;;;;;;;2.20;0.80;;;25.70;49.40;;;;;;222007;1269;24324;-48
2023/07/26 15:21:22;;;;;;;1.70;1.00;;;25.70;49.50;;;;;;222006;1266;22531;-56
2023/07/26 15:26:26;;;;;;;1.20;1.00;;;25.70;48.10;;;;;;222055;1266;22526;-52
2023/07/26 15:31:30;;;;;;;1.30;1.00;;;25.70;47.00;;;;;;221833;1269;22507;-48
2023/07/26 15:36:36;;;;;;;0.80;0.80;;;25.70;48.40;;;;;;221866;1262;22543;-49
2023/07/26 15:41:40;;;;;;;3.80;1.10;;;25.70;47.50;;;;;;222099;1262;25299;-49
2023/07/26 15:46:47;;;;;;;1.50;1.30;;;25.80;46.00;;;;;;221997;1263;22571;-51
2023/07/26 15:52:11;;;;;;;1.50;0.70;;;25.70;46.60;;;;;;222035;1254;22531;-48
2023/07/26 15:57:16;;;;;;;1.00;0.90;;;25.70;47.70;;;;;;222417;1264;24933;-48
2023/07/26 16:02:21;;;;;;;1.70;0.90;;;25.70;48.70;;;;;;222094;1266;26628;-50
2023/07/26 16:07:26;;;;;;;0.80;0.80;;;25.70;48.30;;;;;;222318;1254;22518;-53
2023/07/26 16:12:30;;;;;;;3.60;0.90;;;25.70;48.70;;;;;;222155;1266;22636;-45
2023/07/26 16:17:35;;;;;;;3.90;1.00;;;25.60;47.90;;;;;;222374;1263;22830;-43
2023/07/26 16:22:42;;;;;;;4.10;1.30;;;25.60;48.40;;;;;;221969;1266;22638;-46
2023/07/26 16:27:47;;;;;;;7.00;1.50;;;25.60;48.00;;;;;;222071;1268;25214;-46
2023/07/26 16:32:51;;;;;;;4.30;0.90;;;25.70;48.00;;;;;;221877;1260;25590;-49
2023/07/26 16:37:55;;;;;;;4.40;1.40;;;25.40;47.80;;;;;;222020;1264;24250;-48
2023/07/26 16:43:00;;;;;;;4.60;1.50;;;25.30;47.00;;;;;;221889;1266;22520;-54
2023/07/26 16:48:07;;;;;;;2.40;1.20;;;25.30;47.00;;;;;;221834;1269;23896;-57
2023/07/26 16:53:11;;;;;;;4.20;1.20;;;25.30;46.50;;;;;;222417;1259;24193;-55
2023/07/26 16:58:16;;;;;;;3.60;1.20;;;25.20;45.30;;;;;;222198;1267;22752;-57
2023/07/26 17:03:21;;;;;;;3.70;1.00;;;25.10;45.10;;;;;;222335;1263;22514;-56
2023/07/26 17:08:26;;;;;;;3.30;1.40;;;25.10;46.20;;;;;;222499;1257;25539;-49
2023/07/26 17:13:31;;;;;;;15.30;2.20;;;25.10;45.90;;;;;;222292;1266;22525;-49
2023/07/26 17:18:36;;;;;;;7.50;2.60;;;25.30;47.60;;;;;;222230;1254;25309;-47
2023/07/26 17:23:45;;;;;;;14.70;2.30;;;25.30;47.80;;;;;;221738;1268;22522;-46
2023/07/26 17:28:49;;;;;;;12.40;1.90;;;25.50;49.30;;;;;;222635;1263;22638;-46
2023/07/26 17:33:54;;;;;;;7.40;2.00;;;25.50;48.30;;;;;;223551;1254;22523;-48
2023/07/26 17:39:08;;;;;;;4.20;1.80;;;25.40;48.70;;;;;;222065;1269;22530;-46
2023/07/26 17:44:13;;;;;;;5.90;2.00;;;25.30;47.80;;;;;;222105;1256;22525;-46
2023/07/26 17:49:18;;;;;;;2.90;1.80;;;25.30;47.80;;;;;;222144;1269;24324;-46
2023/07/26 17:54:23;;;;;;;5.20;2.10;;;25.30;47.50;;;;;;222202;1269;25393;-47
2023/07/26 17:59:30;;;;;;;1.50;1.40;;;25.30;47.50;;;;;;222326;1263;23580;-46
2023/07/26 18:04:35;;;;;;;2.00;1.30;;;25.20;47.30;;;;;;222035;1269;24262;-44
2023/07/26 18:09:40;;;;;;;8.30;2.10;;;25.20;47.20;;;;;;222170;1254;25488;-46
2023/07/26 18:14:45;;;;;;;1.80;1.60;;;25.20;46.90;;;;;;222152;1263;24242;-46
2023/07/26 18:19:49;;;;;;;2.30;1.50;;;25.10;46.50;;;;;;222130;1267;25126;-48
2023/07/26 18:24:55;;;;;;;3.70;1.50;;;25.10;46.30;;;;;;222005;1260;22518;-45
2023/07/26 18:29:59;;;;;;;2.30;1.60;;;25.10;46.50;;;;;;222254;1257;22521;-46
2023/07/26 18:35:06;;;;;;;1.60;1.20;;;25.10;46.60;;;;;;222195;1257;22648;-46
2023/07/26 18:40:11;;;;;;;1.80;1.50;;;25.10;46.20;;;;;;221989;1269;23885;-44
2023/07/26 18:45:17;;;;;;;2.00;1.50;;;25.10;46.20;;;;;;222220;1264;23925;-44
2023/07/26 18:50:24;;;;;;;1.70;1.40;;;25.00;46.20;;;;;;222155;1263;22520;-44
2023/07/26 18:55:29;;;;;;;1.50;1.20;;;25.10;46.60;;;;;;222350;1254;22535;-45
2023/07/26 19:00:34;;;;;;;2.70;1.20;;;25.00;46.30;;;;;;222044;1266;24218;-46
2023/07/26 19:05:40;;;;;;;2.40;1.30;;;25.00;46.30;;;;;;221340;1272;24071;-45
2023/07/26 19:10:44;;;;;;;1.10;1.10;;;25.00;46.30;;;;;;221144;1259;22524;-45
2023/07/26 19:16:01;;;;;;;1.60;1.40;;;25.00;46.40;;;;;;221033;1270;23691;-44
2023/07/26 19:21:07;;;;;;;3.40;1.60;;;25.00;46.40;;;;;;220759;1276;24205;-46
2023/07/26 19:26:16;;;;;;;2.00;1.50;;;24.90;46.40;;;;;;220924;1267;24196;-48
2023/07/26 19:31:21;;;;;;;2.40;1.40;;;24.90;46.30;;;;;;220966;1260;25471;-46
2023/07/26 19:36:26;;;;;;;1.60;1.50;;;24.90;46.40;;;;;;220755;1267;22548;-47
2023/07/26 19:41:34;;;;;;;2.60;1.40;;;24.90;46.30;;;;;;221327;1261;22614;-46
2023/07/26 19:46:39;;;;;;;1.30;1.20;;;24.90;46.30;;;;;;221659;1269;27659;-46
2023/07/26 19:51:48;;;;;;;1.50;1.30;;;24.90;46.30;;;;;;221765;1267;22517;-46
2023/07/26 19:56:53;;;;;;;2.60;1.20;;;24.90;46.90;;;;;;222164;1269;22722;-47
2023/07/26 20:01:58;;;;;;;2.20;1.40;;;24.90;45.80;;;;;;222095;1269;24352;-45
2023/07/26 20:07:03;;;;;;;1.50;1.40;;;24.90;46.10;;;;;;222190;1264;25240;-46
2023/07/26 20:12:09;;;;;;;1.40;1.20;;;24.80;46.00;;;;;;222231;1254;22623;-46
2023/07/26 20:17:14;;;;;;;1.70;1.30;;;24.80;46.20;;;;;;222185;1255;22629;-46
2023/07/26 20:22:18;;;;;;;1.30;1.20;;;24.80;45.60;;;;;;222194;1254;25387;-46
2023/07/26 20:27:23;;;;;;;1.40;1.30;;;24.80;45.80;;;;;;222152;1264;25467;-45
2023/07/26 20:32:30;;;;;;;1.40;1.30;;;24.80;45.60;;;;;;222167;1269;25405;-47
2023/07/26 20:37:35;;;;;;;5.10;1.70;;;24.80;45.70;;;;;;221798;1268;22520;-45
2023/07/26 20:42:41;;;;;;;1.30;1.20;;;24.70;45.40;;;;;;221976;1254;22507;-47
2023/07/26 20:47:45;;;;;;;2.30;1.30;;;24.70;45.50;;;;;;221908;1267;22515;-46
2023/07/26 20:52:50;;;;;;;2.00;1.20;;;24.70;45.50;;;;;;222035;1269;25414;-44
2023/07/26 20:57:55;;;;;;;1.80;1.30;;;24.70;45.50;;;;;;222368;1263;24195;-47
2023/07/26 21:02:59;;;;;;;1.40;1.30;;;24.70;45.60;;;;;;222269;1267;22571;-45
2023/07/26 21:08:04;;;;;;;1.80;1.30;;;24.70;45.70;;;;;;221960;1269;22708;-46
2023/07/26 21:13:08;;;;;;;1.50;1.40;;;24.70;46.00;;;;;;221888;1266;24244;-47
2023/07/26 21:18:12;;;;;;;1.80;1.40;;;24.60;45.60;;;;;;221936;1254;24207;-44
2023/07/26 21:23:16;;;;;;;1.70;1.60;;;24.60;45.60;;;;;;221968;1256;22617;-45
2023/07/26 21:28:21;;;;;;;2.70;1.50;;;24.60;45.70;;;;;;222173;1264;22512;-44
2023/07/26 21:33:25;;;;;;;3.00;1.60;;;24.60;45.70;;;;;;222075;1269;22527;-44
2023/07/26 21:38:30;;;;;;;2.20;1.40;;;24.60;45.80;;;;;;222047;1263;22511;-44
2023/07/26 21:43:34;;;;;;;1.40;1.30;;;24.50;45.90;;;;;;222176;1269;22602;-45
2023/07/26 21:48:38;;;;;;;1.40;1.30;;;24.50;45.90;;;;;;221895;1254;22507;-45
2023/07/26 21:53:43;;;;;;;1.50;1.30;;;24.50;46.00;;;;;;221913;1254;22525;-46
2023/07/26 21:58:47;;;;;;;1.50;1.40;;;24.40;46.10;;;;;;222264;1269;25367;-45
2023/07/26 22:03:51;;;;;;;2.70;1.60;;;24.40;46.30;;;;;;222001;1255;22637;-45
2023/07/26 22:08:55;;;;;;;2.20;1.40;;;24.40;46.20;;;;;;221871;1269;22537;-47
2023/07/26 22:13:59;;;;;;;2.20;1.40;;;24.30;46.10;;;;;;221885;1266;24169;-44
2023/07/26 22:19:04;;;;;;;1.60;1.10;;;24.40;46.20;;;;;;222064;1266;24186;-46
2023/07/26 22:24:08;;;;;;;1.70;1.40;;;24.30;46.30;;;;;;221962;1259;24404;-45
2023/07/26 22:29:12;;;;;;;3.60;1.40;;;24.30;46.30;;;;;;222133;1266;22523;-44
2023/07/26 22:34:16;;;;;;;2.30;1.40;;;24.30;46.70;;;;;;221948;1258;24216;-45
2023/07/26 22:39:21;;;;;;;2.60;1.30;;;24.30;46.50;;;;;;221923;1254;24189;-44
2023/07/26 22:44:26;;;;;;;1.50;1.40;;;24.30;46.60;;;;;;222078;1266;22630;-44
2023/07/26 22:49:30;;;;;;;1.70;1.10;;;24.30;47.30;;;;;;222167;1263;22736;-44
2023/07/26 22:54:35;;;;;;;1.80;1.40;;;24.20;46.30;;;;;;221954;1253;22619;-44
2023/07/26 22:59:44;;;;;;;1.80;1.40;;;24.20;46.60;;;;;;221952;1266;24199;-46
2023/07/26 23:04:49;;;;;;;2.80;1.60;;;24.20;46.70;;;;;;222162;1264;23136;-46
2023/07/26 23:09:54;;;;;;;2.60;1.40;;;24.20;46.80;;;;;;221849;1268;22592;-46
2023/07/26 23:14:58;;;;;;;2.20;1.50;;;24.20;46.80;;;;;;222042;1269;22524;-45
2023/07/26 23:20:05;;;;;;;1.80;1.70;;;24.10;46.70;;;;;;222087;1269;24334;-45
2023/07/26 23:25:09;;;;;;;2.80;1.40;;;24.10;47.00;;;;;;221959;1257;24236;-46
2023/07/26 23:30:13;;;;;;;2.20;1.70;;;24.10;47.00;;;;;;222281;1269;22513;-47
2023/07/26 23:35:17;;;;;;;1.80;1.60;;;24.10;46.50;;;;;;222176;1269;24228;-45
2023/07/26 23:40:22;;;;;;;3.40;1.50;;;24.10;47.00;;;;;;222102;1266;22521;-44
2023/07/26 23:45:27;;;;;;;1.30;1.20;;;24.00;47.10;;;;;;221757;1263;23552;-46
2023/07/26 23:50:31;;;;;;;1.70;1.10;;;23.90;47.10;;;;;;222187;1257;22698;-46
2023/07/26 23:55:36;;;;;;;2.00;1.40;;;23.90;47.10;;;;;;222006;1259;22520;-44
